createdAt,value
2023-01-03T00:02:44.580Z,68.24
2023-01-03T00:09:46.207Z,68.09
2023-01-03T00:16:50.675Z,69.22
2023-01-03T00:23:52.323Z,68.90
2023-01-03T00:30:54.023Z,68.03
2023-01-03T00:37:55.760Z,68.25
2023-01-03T00:44:57.379Z,68.61
2023-01-03T00:51:58.948Z,68.49
2023-01-03T00:59:00.844Z,68.62
2023-01-03T01:06:18.598Z,68.43
2023-01-03T01:13:20.199Z,68.03
2023-01-03T01:20:21.840Z,68.21
2023-01-03T01:27:23.549Z,66.99
2023-01-03T01:34:25.250Z,67.26
2023-01-03T01:41:47.152Z,65.57
2023-01-03T01:48:51.013Z,65.24
2023-01-03T01:56:01.180Z,66.09
2023-01-03T02:03:02.924Z,66.32
2023-01-03T02:10:05.121Z,66.06
2023-01-03T02:17:17.988Z,64.93
2023-01-03T02:24:47.582Z,62.97
2023-01-03T02:31:53.548Z,62.75
2023-01-03T02:39:13.139Z,62.89
2023-01-03T02:46:34.865Z,62.59
2023-01-03T02:53:40.849Z,62.75
2023-01-03T03:00:44.295Z,63.51
2023-01-03T03:07:45.927Z,63.98
2023-01-03T03:14:50.796Z,62.38
2023-01-03T03:22:10.924Z,62.36
2023-01-03T03:29:15.739Z,61.76
2023-01-03T03:36:42.005Z,61.34
2023-01-03T03:44:05.464Z,60.54
2023-01-03T03:51:09.074Z,60.04
2023-01-03T03:58:47.786Z,60.09
2023-01-03T04:05:52.821Z,60.67
2023-01-03T04:12:54.470Z,60.66
2023-01-03T04:19:56.155Z,61.57
2023-01-03T04:26:57.757Z,62.74
2023-01-03T04:33:59.397Z,62.88
2023-01-03T04:41:05.800Z,63.99
2023-01-03T04:48:07.463Z,63.90
2023-01-03T04:55:09.685Z,64.09
2023-01-03T05:02:11.523Z,64.13
2023-01-03T05:09:13.369Z,64.51
2023-01-03T05:16:15.221Z,64.38
2023-01-03T05:23:38.028Z,64.70
2023-01-03T05:30:39.689Z,65.49
2023-01-03T05:37:41.295Z,67.38
2023-01-03T05:44:42.989Z,67.11
2023-01-03T05:51:44.565Z,68.16
2023-01-03T05:58:46.186Z,68.61
2023-01-03T06:05:50.374Z,68.68
2023-01-03T06:12:52.333Z,68.36
2023-01-03T06:19:53.959Z,68.70
2023-01-03T06:26:55.634Z,68.02
2023-01-03T06:33:57.257Z,67.76
2023-01-03T06:40:59.051Z,67.42
2023-01-03T06:48:24.021Z,67.27
2023-01-03T06:55:25.834Z,67.43
2023-01-03T07:02:27.701Z,68.07
2023-01-03T07:09:29.539Z,68.95
2023-01-03T07:16:36.183Z,69.39
2023-01-03T07:23:38.146Z,70.17
2023-01-03T07:30:40.840Z,71.81
2023-01-03T07:37:42.450Z,71.63
2023-01-03T07:44:44.116Z,72.16
2023-01-03T07:51:45.780Z,70.86
2023-01-03T07:58:47.859Z,71.05
2023-01-03T08:05:49.549Z,70.79
2023-01-03T08:13:11.633Z,70.88
2023-01-03T08:20:13.458Z,70.47
2023-01-03T08:27:15.244Z,70.68
2023-01-03T08:34:22.313Z,70.43
2023-01-03T08:41:30.516Z,70.83
2023-01-03T08:48:32.204Z,70.61
2023-01-03T08:55:34.023Z,70.24
2023-01-03T09:02:36.584Z,70.60
2023-01-03T09:09:38.441Z,68.92
2023-01-03T09:16:45.411Z,69.00
2023-01-03T09:23:50.840Z,68.16
2023-01-03T09:30:52.707Z,66.69
2023-01-03T09:37:54.267Z,65.69
2023-01-03T09:44:55.916Z,65.15
2023-01-03T09:52:16.188Z,65.02
2023-01-03T09:59:36.547Z,65.17
2023-01-03T10:07:04.829Z,65.14
2023-01-03T10:14:25.690Z,64.68
2023-01-03T10:21:36.299Z,63.81
2023-01-03T10:28:40.984Z,64.50
2023-01-03T10:35:42.691Z,64.31
2023-01-03T10:42:44.482Z,63.58
2023-01-03T10:49:46.646Z,64.31
2023-01-03T10:56:48.644Z,64.82
2023-01-03T11:04:15.266Z,64.49
2023-01-03T11:11:28.385Z,63.50
2023-01-03T11:18:30.307Z,62.56
2023-01-03T11:25:50.744Z,60.46
2023-01-03T11:33:36.875Z,60.65
2023-01-03T11:40:54.999Z,61.37
2023-01-03T11:48:28.219Z,61.86
2023-01-03T11:55:29.746Z,62.09
2023-01-03T12:02:54.057Z,62.29
2023-01-03T12:10:16.557Z,61.94
2023-01-03T12:17:22.150Z,62.09
2023-01-03T12:24:26.658Z,60.77
2023-01-03T12:31:32.959Z,59.84
2023-01-03T12:38:37.892Z,60.49
2023-01-03T12:46:13.113Z,59.63
2023-01-03T12:53:27.612Z,59.50
2023-01-03T13:00:52.636Z,57.59
2023-01-03T13:08:33.129Z,57.03
2023-01-03T13:15:37.142Z,57.12
2023-01-03T13:22:48.528Z,57.30
2023-01-03T13:29:50.064Z,57.06
2023-01-03T13:37:07.358Z,57.20
2023-01-03T13:44:23.786Z,57.57
2023-01-03T13:51:40.299Z,57.75
2023-01-03T13:58:59.361Z,57.90
2023-01-03T14:06:19.421Z,57.68
2023-01-03T14:13:20.863Z,58.36
2023-01-03T14:20:26.523Z,58.62
2023-01-03T14:27:35.099Z,58.13
2023-01-03T14:34:40.549Z,58.82
2023-01-03T14:41:43.386Z,58.98
2023-01-03T14:48:46.278Z,59.38
2023-01-03T14:55:52.497Z,60.04
2023-01-03T15:02:57.526Z,60.32
2023-01-03T15:10:09.332Z,60.49
2023-01-03T15:17:10.828Z,61.26
2023-01-03T15:24:17.580Z,61.34
2023-01-03T15:31:28.366Z,62.34
2023-01-03T15:38:36.500Z,62.42
2023-01-03T15:45:39.902Z,62.44
2023-01-03T15:52:41.553Z,66.25
2023-01-03T15:59:43.784Z,67.00
2023-01-03T16:06:45.430Z,67.25
2023-01-03T16:13:49.989Z,67.55
2023-01-03T16:20:51.576Z,68.46
2023-01-03T16:27:53.167Z,68.76
2023-01-03T16:34:56.915Z,69.02
2023-01-03T16:42:13.687Z,69.98
2023-01-03T16:49:15.326Z,70.32
2023-01-03T16:56:17.017Z,70.42
2023-01-03T17:03:18.849Z,68.19
2023-01-03T17:10:29.067Z,67.82
2023-01-03T17:17:30.788Z,67.93
2023-01-03T17:24:32.387Z,68.31
2023-01-03T17:31:34.169Z,68.01
2023-01-03T17:38:35.898Z,68.69
2023-01-03T17:45:56.190Z,69.08
2023-01-03T17:52:58.676Z,69.18
2023-01-03T18:00:00.558Z,69.69
2023-01-03T18:07:02.139Z,70.58
2023-01-03T18:14:03.831Z,70.32
2023-01-03T18:21:06.153Z,71.36
2023-01-03T18:28:08.445Z,71.25
2023-01-03T18:35:14.411Z,71.44
2023-01-03T18:42:39.081Z,73.09
2023-01-03T18:49:40.786Z,72.50
2023-01-03T18:56:42.423Z,72.82
2023-01-03T19:03:44.107Z,73.26
2023-01-03T19:10:45.902Z,73.93
2023-01-03T19:17:47.554Z,74.42
2023-01-03T19:24:49.141Z,76.08
2023-01-03T19:31:51.949Z,76.47
2023-01-03T19:38:53.632Z,76.45
2023-01-03T19:45:55.309Z,76.53
2023-01-03T19:52:56.920Z,76.65
2023-01-03T19:59:59.110Z,77.59
2023-01-03T20:07:00.722Z,76.60
2023-01-03T20:14:04.939Z,76.06
2023-01-03T20:21:22.088Z,75.85
2023-01-03T20:28:31.107Z,76.07
2023-01-03T20:42:54.619Z,75.33
2023-01-03T20:49:56.156Z,75.14
2023-01-03T20:56:57.742Z,75.56
2023-01-03T21:03:59.353Z,75.29
2023-01-03T21:11:01.150Z,76.56
2023-01-03T21:18:03.506Z,76.53
2023-01-03T21:25:07.175Z,77.11
2023-01-03T21:32:10.097Z,77.06
2023-01-03T21:39:11.775Z,76.52
2023-01-03T21:46:20.625Z,77.00
2023-01-03T21:53:23.106Z,76.19
2023-01-03T22:00:24.799Z,76.42
2023-01-03T22:07:26.493Z,78.28
2023-01-03T22:14:28.145Z,77.53
2023-01-03T22:21:30.760Z,77.00
2023-01-03T22:28:34.261Z,78.51
2023-01-03T22:35:35.936Z,78.24
2023-01-03T22:42:37.855Z,78.68
2023-01-03T22:49:39.723Z,77.36
2023-01-03T22:56:41.324Z,78.34
2023-01-03T23:03:43.731Z,78.39
2023-01-03T23:10:45.342Z,78.88
2023-01-03T23:17:56.542Z,78.42
2023-01-03T23:24:58.174Z,79.11
2023-01-03T23:32:00.108Z,79.61
2023-01-03T23:39:01.724Z,79.17
2023-01-03T23:46:03.536Z,81.37
2023-01-03T23:53:05.250Z,81.15
